Airfield :
LOGIN :

Register | Disclaimer

   EN    FR    IT 

 










Legend :    VFR   Marginal VFR   IFR   Intensive IFR   Very Intensive IFR
Visi :
Ceiling :
>= 8 km
>= 3000ft
5 to 8 km
1000 to 3000 ft
1500m to 5 km
500 to 1000 ft
800 to 1500m
200 to 500 ft
< 800m
< 200 ft
Symbols :   Thunderstorms  Fog  Heavy snow  Heavy precipitations  Wind > 20 kt
SIGMETs :     Misc.  Thunderstorms  Icing  Turbulence  Mountain Waves  Volcanic Ashes






- Airport Elevation : 203 ft
- IATA code : XMJ


LFBM - Mont-De-Marsan

CURRENT METAR :
  • 181830Z AUTO 09005KT 9999 ///CB 22/19 Q1010 TEMPO 28015G35KT 2000 TSRAGR

EXPIRED METARs :
  • 181800Z AUTO 07004KT 040V100 9999 ///CB 23/20 Q1010 TEMPO 28015G35KT 2000 TSRAGR
  • 181730Z AUTO VRB03KT 9999 TS ///CB 24/19 Q1010 TEMPO 28015G35KT 2000 TSRAGR
  • 181700Z AUTO 34002KT 9999 VCTS ///CB 24/20 Q1009 TEMPO 28015G35KT 2000 TSRAGR
  • 181630Z AUTO VRB03KT CAVOK 24/19 Q1009 TEMPO 28015G35KT 2000 TSRAGR SCT007 BKN040CB
  • 181600Z AUTO 08005KT CAVOK 25/19 Q1009 TEMPO 28015G35KT 2000 TSRAGR SCT050CB
  • 181530Z AUTO 06007KT 9999 FEW027 OVC190 25/19 Q1010 TEMPO 28015G35KT 2000 TSRAGR SCT050CB
  • 181500Z AUTO 07007KT 030V090 CAVOK 25/19 Q1010 TEMPO 4000 SHRA SCT050CB
  • 181430Z AUTO 07007KT CAVOK 25/19 Q1010 TEMPO 4000 SHRA SCT050CB
  • 181400Z AUTO 06007KT 030V110 CAVOK 25/20 Q1011 TEMPO 4000 SHRA SCT050CB

TAF AMD TAF LFBM
Valid from the 18 at 16:00 until the 19 at 15:00 UTC


181611Z 1816/1915 09008KT 9999 SCT040
BECMG 1816/1817 28010KT
TEMPO 1816/1824 4000 SHRA SCT050CB
PROB40
TEMPO 1817/1821 28015G35KT 2000 TSRAGR SCT007 BKN040CB
BECMG 1900/1901 4000 RA BKN005 BKN015
BECMG 1906/1908 9999 NSW SCT040
BECMG 1909/1911 4000 SHRA SCT040TCU



MET'MAP, your aeronautical weather chart ! - Copyright ORBIFLY December 2007 - Disclaimer

ORBIFLY MET'MAP TEAM :

Programming & Development : Alexandra Zaïnal
Original concept : Baudouin d'Aumeries
Technical & hardware support : Manuel Goepfert
Assistance : Marc-Olivier Méhu




SOURCES & CREDITS :

   NOAA